sensor_id;sensor_type;location;lat;lon;timestamp;P1;durP1;ratioP1;P2;durP2;ratioP2
7657;SDS011;8462;53.156;8.220;2023-04-24T00:00:10;4.27;;;3.40;;
7657;SDS011;8462;53.156;8.220;2023-04-24T00:02:38;4.97;;;3.23;;
7657;SDS011;8462;53.156;8.220;2023-04-24T00:05:05;3.87;;;3.20;;
7657;SDS011;8462;53.156;8.220;2023-04-24T00:07:32;4.53;;;2.60;;
7657;SDS011;8462;53.156;8.220;2023-04-24T00:10:01;4.17;;;3.07;;
7657;SDS011;8462;53.156;8.220;2023-04-24T00:12:28;3.50;;;3.17;;
7657;SDS011;8462;53.156;8.220;2023-04-24T00:14:55;4.97;;;3.70;;
7657;SDS011;8462;53.156;8.220;2023-04-24T00:17:22;4.20;;;2.87;;
7657;SDS011;8462;53.156;8.220;2023-04-24T00:19:49;4.43;;;3.30;;
7657;SDS011;8462;53.156;8.220;2023-04-24T00:22:16;2.53;;;2.20;;
7657;SDS011;8462;53.156;8.220;2023-04-24T00:24:45;1.97;;;1.77;;
7657;SDS011;8462;53.156;8.220;2023-04-24T00:27:14;2.37;;;2.10;;
7657;SDS011;8462;53.156;8.220;2023-04-24T00:29:40;2.93;;;2.20;;
7657;SDS011;8462;53.156;8.220;2023-04-24T00:32:07;4.63;;;2.87;;
7657;SDS011;8462;53.156;8.220;2023-04-24T00:34:35;1.40;;;1.30;;
7657;SDS011;8462;53.156;8.220;2023-04-24T00:37:02;1.30;;;1.20;;
7657;SDS011;8462;53.156;8.220;2023-04-24T00:39:28;1.60;;;1.17;;
7657;SDS011;8462;53.156;8.220;2023-04-24T00:41:56;3.83;;;1.20;;
7657;SDS011;8462;53.156;8.220;2023-04-24T00:44:24;1.47;;;1.00;;
7657;SDS011;8462;53.156;8.220;2023-04-24T00:46:51;0.80;;;0.80;;
7657;SDS011;8462;53.156;8.220;2023-04-24T00:49:21;1.10;;;1.03;;
7657;SDS011;8462;53.156;8.220;2023-04-24T00:51:49;1.13;;;1.03;;
7657;SDS011;8462;53.156;8.220;2023-04-24T00:54:16;1.30;;;1.00;;
7657;SDS011;8462;53.156;8.220;2023-04-24T00:56:43;2.03;;;1.50;;
7657;SDS011;8462;53.156;8.220;2023-04-24T00:59:11;1.40;;;1.30;;
7657;SDS011;8462;53.156;8.220;2023-04-24T01:01:39;2.03;;;1.27;;
7657;SDS011;8462;53.156;8.220;2023-04-24T01:04:07;1.53;;;1.43;;
7657;SDS011;8462;53.156;8.220;2023-04-24T01:06:36;1.57;;;1.47;;
7657;SDS011;8462;53.156;8.220;2023-04-24T01:09:04;1.87;;;1.67;;
7657;SDS011;8462;53.156;8.220;2023-04-24T01:11:33;2.60;;;1.60;;
7657;SDS011;8462;53.156;8.220;2023-04-24T01:14:00;1.37;;;1.27;;
7657;SDS011;8462;53.156;8.220;2023-04-24T01:16:27;1.97;;;1.80;;
7657;SDS011;8462;53.156;8.220;2023-04-24T01:18:55;1.80;;;1.70;;
7657;SDS011;8462;53.156;8.220;2023-04-24T01:21:22;1.77;;;1.60;;
7657;SDS011;8462;53.156;8.220;2023-04-24T01:23:54;1.70;;;1.57;;
7657;SDS011;8462;53.156;8.220;2023-04-24T01:26:21;2.50;;;1.90;;
7657;SDS011;8462;53.156;8.220;2023-04-24T01:28:51;1.70;;;1.60;;
7657;SDS011;8462;53.156;8.220;2023-04-24T01:31:18;1.80;;;1.70;;
7657;SDS011;8462;53.156;8.220;2023-04-24T01:33:46;1.70;;;1.60;;
7657;SDS011;8462;53.156;8.220;2023-04-24T01:36:13;2.53;;;1.70;;
7657;SDS011;8462;53.156;8.220;2023-04-24T01:38:41;1.73;;;1.63;;
7657;SDS011;8462;53.156;8.220;2023-04-24T01:41:10;2.07;;;1.70;;
7657;SDS011;8462;53.156;8.220;2023-04-24T01:43:37;3.43;;;1.77;;
7657;SDS011;8462;53.156;8.220;2023-04-24T01:46:05;1.67;;;1.57;;
7657;SDS011;8462;53.156;8.220;2023-04-24T01:48:34;2.33;;;2.13;;
7657;SDS011;8462;53.156;8.220;2023-04-24T01:51:02;2.33;;;2.13;;
7657;SDS011;8462;53.156;8.220;2023-04-24T01:53:29;2.20;;;2.00;;
7657;SDS011;8462;53.156;8.220;2023-04-24T01:55:55;2.37;;;2.10;;
7657;SDS011;8462;53.156;8.220;2023-04-24T01:58:25;2.43;;;2.23;;
7657;SDS011;8462;53.156;8.220;2023-04-24T02:00:53;2.43;;;2.10;;
7657;SDS011;8462;53.156;8.220;2023-04-24T02:03:22;2.67;;;2.37;;
7657;SDS011;8462;53.156;8.220;2023-04-24T02:05:49;2.70;;;2.50;;
7657;SDS011;8462;53.156;8.220;2023-04-24T02:08:16;5.63;;;3.30;;
7657;SDS011;8462;53.156;8.220;2023-04-24T02:10:43;3.43;;;2.70;;
7657;SDS011;8462;53.156;8.220;2023-04-24T02:13:10;3.63;;;3.03;;
7657;SDS011;8462;53.156;8.220;2023-04-24T02:15:38;3.07;;;2.77;;
7657;SDS011;8462;53.156;8.220;2023-04-24T02:18:05;3.10;;;2.90;;
7657;SDS011;8462;53.156;8.220;2023-04-24T02:20:32;5.23;;;3.20;;
7657;SDS011;8462;53.156;8.220;2023-04-24T02:23:00;2.97;;;2.67;;
7657;SDS011;8462;53.156;8.220;2023-04-24T02:25:27;3.50;;;2.70;;
7657;SDS011;8462;53.156;8.220;2023-04-24T02:27:54;3.30;;;3.00;;
7657;SDS011;8462;53.156;8.220;2023-04-24T02:30:21;3.57;;;2.77;;
7657;SDS011;8462;53.156;8.220;2023-04-24T02:32:49;3.23;;;2.67;;
7657;SDS011;8462;53.156;8.220;2023-04-24T02:35:17;2.93;;;2.63;;
7657;SDS011;8462;53.156;8.220;2023-04-24T02:37:44;2.90;;;2.60;;
7657;SDS011;8462;53.156;8.220;2023-04-24T02:40:11;3.27;;;2.97;;
7657;SDS011;8462;53.156;8.220;2023-04-24T02:42:38;3.83;;;3.03;;
7657;SDS011;8462;53.156;8.220;2023-04-24T02:45:05;3.70;;;3.17;;
7657;SDS011;8462;53.156;8.220;2023-04-24T02:47:33;3.73;;;2.97;;
7657;SDS011;8462;53.156;8.220;2023-04-24T02:50:02;3.57;;;2.87;;
7657;SDS011;8462;53.156;8.220;2023-04-24T02:52:29;5.47;;;2.93;;
7657;SDS011;8462;53.156;8.220;2023-04-24T02:54:56;3.87;;;3.10;;
7657;SDS011;8462;53.156;8.220;2023-04-24T02:57:23;6.37;;;3.60;;
7657;SDS011;8462;53.156;8.220;2023-04-24T02:59:50;4.53;;;3.53;;
7657;SDS011;8462;53.156;8.220;2023-04-24T03:02:17;3.20;;;2.90;;
7657;SDS011;8462;53.156;8.220;2023-04-24T03:04:44;3.80;;;3.40;;
7657;SDS011;8462;53.156;8.220;2023-04-24T03:07:17;3.57;;;3.07;;
7657;SDS011;8462;53.156;8.220;2023-04-24T03:09:45;4.97;;;3.67;;
7657;SDS011;8462;53.156;8.220;2023-04-24T03:12:15;5.33;;;3.60;;
7657;SDS011;8462;53.156;8.220;2023-04-24T03:14:43;4.13;;;3.07;;
7657;SDS011;8462;53.156;8.220;2023-04-24T03:17:11;4.00;;;3.10;;
7657;SDS011;8462;53.156;8.220;2023-04-24T03:19:37;3.77;;;3.10;;
7657;SDS011;8462;53.156;8.220;2023-04-24T03:22:08;4.60;;;3.93;;
7657;SDS011;8462;53.156;8.220;2023-04-24T03:24:38;5.03;;;2.73;;
7657;SDS011;8462;53.156;8.220;2023-04-24T03:27:05;4.37;;;3.40;;
7657;SDS011;8462;53.156;8.220;2023-04-24T03:30:01;4.50;;;3.50;;
7657;SDS011;8462;53.156;8.220;2023-04-24T03:32:43;3.53;;;3.23;;
7657;SDS011;8462;53.156;8.220;2023-04-24T03:35:12;4.60;;;3.50;;
7657;SDS011;8462;53.156;8.220;2023-04-24T03:37:43;4.20;;;3.40;;
7657;SDS011;8462;53.156;8.220;2023-04-24T03:40:30;5.33;;;3.53;;
7657;SDS011;8462;53.156;8.220;2023-04-24T03:42:59;3.87;;;3.10;;
7657;SDS011;8462;53.156;8.220;2023-04-24T03:45:26;5.00;;;3.30;;
7657;SDS011;8462;53.156;8.220;2023-04-24T03:47:53;4.67;;;3.50;;
7657;SDS011;8462;53.156;8.220;2023-04-24T03:50:20;4.13;;;3.70;;
7657;SDS011;8462;53.156;8.220;2023-04-24T03:52:50;5.27;;;3.90;;
7657;SDS011;8462;53.156;8.220;2023-04-24T03:55:29;3.73;;;3.13;;
7657;SDS011;8462;53.156;8.220;2023-04-24T03:57:57;6.63;;;3.43;;
7657;SDS011;8462;53.156;8.220;2023-04-24T04:00:24;3.93;;;3.27;;
7657;SDS011;8462;53.156;8.220;2023-04-24T04:03:07;5.10;;;3.30;;
7657;SDS011;8462;53.156;8.220;2023-04-24T04:05:34;6.20;;;3.27;;
7657;SDS011;8462;53.156;8.220;2023-04-24T04:08:02;4.47;;;3.37;;
7657;SDS011;8462;53.156;8.220;2023-04-24T04:10:30;4.53;;;3.30;;
7657;SDS011;8462;53.156;8.220;2023-04-24T04:12:57;4.70;;;3.27;;
7657;SDS011;8462;53.156;8.220;2023-04-24T04:15:25;3.73;;;3.03;;
7657;SDS011;8462;53.156;8.220;2023-04-24T04:17:52;3.73;;;3.17;;
7657;SDS011;8462;53.156;8.220;2023-04-24T04:20:19;3.37;;;3.07;;
7657;SDS011;8462;53.156;8.220;2023-04-24T04:22:46;5.83;;;3.13;;
7657;SDS011;8462;53.156;8.220;2023-04-24T04:25:19;4.60;;;3.10;;
7657;SDS011;8462;53.156;8.220;2023-04-24T04:27:47;4.13;;;3.20;;
7657;SDS011;8462;53.156;8.220;2023-04-24T04:30:16;4.57;;;3.30;;
7657;SDS011;8462;53.156;8.220;2023-04-24T04:32:52;4.60;;;3.97;;
7657;SDS011;8462;53.156;8.220;2023-04-24T04:35:22;5.17;;;3.80;;
7657;SDS011;8462;53.156;8.220;2023-04-24T04:37:51;4.93;;;4.30;;
7657;SDS011;8462;53.156;8.220;2023-04-24T04:40:38;6.47;;;4.13;;
7657;SDS011;8462;53.156;8.220;2023-04-24T04:43:07;5.23;;;4.23;;
7657;SDS011;8462;53.156;8.220;2023-04-24T04:45:44;5.27;;;3.93;;
7657;SDS011;8462;53.156;8.220;2023-04-24T04:48:22;5.50;;;3.53;;
7657;SDS011;8462;53.156;8.220;2023-04-24T04:50:49;5.80;;;4.53;;
7657;SDS011;8462;53.156;8.220;2023-04-24T04:53:16;5.73;;;3.97;;
7657;SDS011;8462;53.156;8.220;2023-04-24T04:55:43;7.70;;;4.53;;
7657;SDS011;8462;53.156;8.220;2023-04-24T04:58:15;5.83;;;4.07;;
7657;SDS011;8462;53.156;8.220;2023-04-24T05:00:43;6.97;;;5.03;;
7657;SDS011;8462;53.156;8.220;2023-04-24T05:03:20;5.63;;;4.50;;
7657;SDS011;8462;53.156;8.220;2023-04-24T05:05:57;6.53;;;5.00;;
7657;SDS011;8462;53.156;8.220;2023-04-24T05:08:24;7.93;;;5.17;;
7657;SDS011;8462;53.156;8.220;2023-04-24T05:10:54;6.13;;;4.73;;
7657;SDS011;8462;53.156;8.220;2023-04-24T05:13:23;5.73;;;4.40;;
7657;SDS011;8462;53.156;8.220;2023-04-24T05:15:50;6.10;;;4.77;;
7657;SDS011;8462;53.156;8.220;2023-04-24T05:18:17;7.73;;;4.97;;
7657;SDS011;8462;53.156;8.220;2023-04-24T05:20:44;8.77;;;4.83;;
7657;SDS011;8462;53.156;8.220;2023-04-24T05:23:12;5.30;;;4.53;;
7657;SDS011;8462;53.156;8.220;2023-04-24T05:25:41;6.00;;;4.50;;
7657;SDS011;8462;53.156;8.220;2023-04-24T05:28:11;5.07;;;4.07;;
7657;SDS011;8462;53.156;8.220;2023-04-24T05:30:39;6.97;;;4.20;;
7657;SDS011;8462;53.156;8.220;2023-04-24T05:33:06;5.53;;;4.50;;
7657;SDS011;8462;53.156;8.220;2023-04-24T05:35:34;7.03;;;4.60;;
7657;SDS011;8462;53.156;8.220;2023-04-24T05:38:01;6.43;;;4.67;;
7657;SDS011;8462;53.156;8.220;2023-04-24T05:40:28;6.57;;;5.23;;
7657;SDS011;8462;53.156;8.220;2023-04-24T05:42:55;6.23;;;4.83;;
7657;SDS011;8462;53.156;8.220;2023-04-24T05:45:23;6.77;;;4.67;;
7657;SDS011;8462;53.156;8.220;2023-04-24T05:47:51;7.20;;;5.00;;
7657;SDS011;8462;53.156;8.220;2023-04-24T05:50:18;8.77;;;5.23;;
7657;SDS011;8462;53.156;8.220;2023-04-24T05:52:46;8.20;;;4.97;;
7657;SDS011;8462;53.156;8.220;2023-04-24T05:55:24;6.53;;;5.03;;
7657;SDS011;8462;53.156;8.220;2023-04-24T05:57:52;6.93;;;4.63;;
7657;SDS011;8462;53.156;8.220;2023-04-24T06:00:20;7.43;;;5.03;;
7657;SDS011;8462;53.156;8.220;2023-04-24T06:02:58;7.53;;;5.17;;
7657;SDS011;8462;53.156;8.220;2023-04-24T06:05:26;6.83;;;5.10;;
7657;SDS011;8462;53.156;8.220;2023-04-24T06:07:53;8.80;;;5.20;;
7657;SDS011;8462;53.156;8.220;2023-04-24T06:10:22;6.63;;;5.30;;
7657;SDS011;8462;53.156;8.220;2023-04-24T06:12:50;6.53;;;5.10;;
7657;SDS011;8462;53.156;8.220;2023-04-24T06:15:17;7.17;;;4.60;;
7657;SDS011;8462;53.156;8.220;2023-04-24T06:17:51;9.23;;;5.37;;
7657;SDS011;8462;53.156;8.220;2023-04-24T06:20:20;6.83;;;5.10;;
7657;SDS011;8462;53.156;8.220;2023-04-24T06:22:47;7.40;;;4.37;;
7657;SDS011;8462;53.156;8.220;2023-04-24T06:25:14;7.63;;;5.23;;
7657;SDS011;8462;53.156;8.220;2023-04-24T06:27:42;6.60;;;4.47;;
7657;SDS011;8462;53.156;8.220;2023-04-24T06:30:09;6.40;;;5.37;;
7657;SDS011;8462;53.156;8.220;2023-04-24T06:32:37;8.37;;;5.30;;
7657;SDS011;8462;53.156;8.220;2023-04-24T06:35:04;7.90;;;5.03;;
7657;SDS011;8462;53.156;8.220;2023-04-24T06:37:34;6.63;;;5.13;;
7657;SDS011;8462;53.156;8.220;2023-04-24T06:40:01;6.07;;;4.87;;
7657;SDS011;8462;53.156;8.220;2023-04-24T06:42:28;7.30;;;4.90;;
7657;SDS011;8462;53.156;8.220;2023-04-24T06:44:55;7.23;;;5.17;;
7657;SDS011;8462;53.156;8.220;2023-04-24T06:47:22;8.40;;;5.30;;
7657;SDS011;8462;53.156;8.220;2023-04-24T06:49:49;6.37;;;4.80;;
7657;SDS011;8462;53.156;8.220;2023-04-24T06:52:17;8.50;;;5.43;;
7657;SDS011;8462;53.156;8.220;2023-04-24T06:54:46;6.67;;;4.97;;
7657;SDS011;8462;53.156;8.220;2023-04-24T06:57:13;6.33;;;5.47;;
7657;SDS011;8462;53.156;8.220;2023-04-24T06:59:41;5.83;;;4.70;;
7657;SDS011;8462;53.156;8.220;2023-04-24T07:02:08;7.63;;;5.63;;
7657;SDS011;8462;53.156;8.220;2023-04-24T07:04:36;7.07;;;5.43;;
7657;SDS011;8462;53.156;8.220;2023-04-24T07:07:03;8.33;;;4.90;;
7657;SDS011;8462;53.156;8.220;2023-04-24T07:09:32;7.20;;;4.33;;
7657;SDS011;8462;53.156;8.220;2023-04-24T07:12:05;7.00;;;5.23;;
7657;SDS011;8462;53.156;8.220;2023-04-24T07:14:33;9.97;;;5.40;;
7657;SDS011;8462;53.156;8.220;2023-04-24T07:17:01;8.13;;;5.13;;
7657;SDS011;8462;53.156;8.220;2023-04-24T07:19:28;8.97;;;5.73;;
7657;SDS011;8462;53.156;8.220;2023-04-24T07:21:55;7.37;;;5.53;;
7657;SDS011;8462;53.156;8.220;2023-04-24T07:24:23;8.03;;;5.07;;
7657;SDS011;8462;53.156;8.220;2023-04-24T07:26:50;8.43;;;6.37;;
7657;SDS011;8462;53.156;8.220;2023-04-24T07:29:19;9.20;;;5.40;;
7657;SDS011;8462;53.156;8.220;2023-04-24T07:31:46;7.43;;;5.70;;
7657;SDS011;8462;53.156;8.220;2023-04-24T07:34:13;7.50;;;5.73;;
7657;SDS011;8462;53.156;8.220;2023-04-24T07:36:40;7.53;;;5.67;;
7657;SDS011;8462;53.156;8.220;2023-04-24T07:39:07;8.00;;;5.70;;
7657;SDS011;8462;53.156;8.220;2023-04-24T07:41:34;8.63;;;5.90;;
7657;SDS011;8462;53.156;8.220;2023-04-24T07:44:01;9.73;;;6.17;;
7657;SDS011;8462;53.156;8.220;2023-04-24T07:46:30;9.13;;;5.57;;
7657;SDS011;8462;53.156;8.220;2023-04-24T07:48:58;8.33;;;5.57;;
7657;SDS011;8462;53.156;8.220;2023-04-24T07:51:27;10.73;;;6.53;;
7657;SDS011;8462;53.156;8.220;2023-04-24T07:53:54;6.73;;;5.47;;
7657;SDS011;8462;53.156;8.220;2023-04-24T07:56:21;9.07;;;5.97;;
7657;SDS011;8462;53.156;8.220;2023-04-24T07:58:48;8.07;;;5.87;;
7657;SDS011;8462;53.156;8.220;2023-04-24T08:01:15;8.70;;;5.80;;
7657;SDS011;8462;53.156;8.220;2023-04-24T08:03:53;8.93;;;6.27;;
7657;SDS011;8462;53.156;8.220;2023-04-24T08:06:19;8.67;;;5.43;;
7657;SDS011;8462;53.156;8.220;2023-04-24T08:08:46;8.83;;;6.30;;
7657;SDS011;8462;53.156;8.220;2023-04-24T08:11:13;6.67;;;5.33;;
7657;SDS011;8462;53.156;8.220;2023-04-24T08:13:40;6.73;;;5.00;;
7657;SDS011;8462;53.156;8.220;2023-04-24T08:16:07;7.37;;;4.97;;
7657;SDS011;8462;53.156;8.220;2023-04-24T08:18:34;8.67;;;5.80;;
7657;SDS011;8462;53.156;8.220;2023-04-24T08:21:03;7.57;;;5.87;;
7657;SDS011;8462;53.156;8.220;2023-04-24T08:23:30;6.30;;;5.33;;
7657;SDS011;8462;53.156;8.220;2023-04-24T08:25:59;6.00;;;5.27;;
7657;SDS011;8462;53.156;8.220;2023-04-24T08:28:26;6.37;;;5.07;;
7657;SDS011;8462;53.156;8.220;2023-04-24T08:30:53;6.43;;;5.23;;
7657;SDS011;8462;53.156;8.220;2023-04-24T08:33:22;6.37;;;5.47;;
7657;SDS011;8462;53.156;8.220;2023-04-24T08:35:50;5.83;;;4.70;;
7657;SDS011;8462;53.156;8.220;2023-04-24T08:38:18;4.93;;;4.23;;
7657;SDS011;8462;53.156;8.220;2023-04-24T08:40:46;6.10;;;4.57;;
7657;SDS011;8462;53.156;8.220;2023-04-24T08:43:14;8.03;;;5.33;;
7657;SDS011;8462;53.156;8.220;2023-04-24T08:45:42;8.27;;;5.33;;
7657;SDS011;8462;53.156;8.220;2023-04-24T08:48:09;6.23;;;4.33;;
7657;SDS011;8462;53.156;8.220;2023-04-24T08:50:37;5.80;;;4.47;;
7657;SDS011;8462;53.156;8.220;2023-04-24T08:53:07;5.50;;;4.37;;
7657;SDS011;8462;53.156;8.220;2023-04-24T08:55:36;5.33;;;4.00;;
7657;SDS011;8462;53.156;8.220;2023-04-24T08:58:04;4.47;;;3.43;;
7657;SDS011;8462;53.156;8.220;2023-04-24T09:00:31;5.90;;;3.87;;
7657;SDS011;8462;53.156;8.220;2023-04-24T09:03:00;4.80;;;3.57;;
7657;SDS011;8462;53.156;8.220;2023-04-24T09:05:28;5.83;;;4.30;;
7657;SDS011;8462;53.156;8.220;2023-04-24T09:07:56;6.57;;;4.77;;
7657;SDS011;8462;53.156;8.220;2023-04-24T09:10:24;6.93;;;4.70;;
7657;SDS011;8462;53.156;8.220;2023-04-24T09:12:53;5.40;;;4.60;;
7657;SDS011;8462;53.156;8.220;2023-04-24T09:15:21;6.63;;;4.80;;
7657;SDS011;8462;53.156;8.220;2023-04-24T09:17:48;5.30;;;4.10;;
7657;SDS011;8462;53.156;8.220;2023-04-24T09:20:17;6.00;;;3.70;;
7657;SDS011;8462;53.156;8.220;2023-04-24T09:22:44;5.27;;;4.33;;
7657;SDS011;8462;53.156;8.220;2023-04-24T09:25:11;6.97;;;4.77;;
7657;SDS011;8462;53.156;8.220;2023-04-24T09:27:41;5.53;;;4.23;;
7657;SDS011;8462;53.156;8.220;2023-04-24T09:30:11;4.87;;;4.07;;
7657;SDS011;8462;53.156;8.220;2023-04-24T09:32:39;6.97;;;4.13;;
7657;SDS011;8462;53.156;8.220;2023-04-24T09:35:08;5.20;;;4.00;;
7657;SDS011;8462;53.156;8.220;2023-04-24T09:37:38;6.57;;;4.40;;
7657;SDS011;8462;53.156;8.220;2023-04-24T09:40:14;6.37;;;4.63;;
7657;SDS011;8462;53.156;8.220;2023-04-24T09:42:46;5.00;;;4.00;;
7657;SDS011;8462;53.156;8.220;2023-04-24T09:45:20;6.10;;;4.67;;
7657;SDS011;8462;53.156;8.220;2023-04-24T09:47:51;7.37;;;5.20;;
7657;SDS011;8462;53.156;8.220;2023-04-24T09:50:18;6.87;;;4.60;;
7657;SDS011;8462;53.156;8.220;2023-04-24T09:52:46;9.00;;;5.10;;
7657;SDS011;8462;53.156;8.220;2023-04-24T09:55:21;6.97;;;4.53;;
7657;SDS011;8462;53.156;8.220;2023-04-24T09:57:49;6.37;;;4.60;;
7657;SDS011;8462;53.156;8.220;2023-04-24T10:00:25;6.83;;;4.70;;
7657;SDS011;8462;53.156;8.220;2023-04-24T10:02:57;5.33;;;4.70;;
7657;SDS011;8462;53.156;8.220;2023-04-24T10:05:26;6.80;;;5.00;;
7657;SDS011;8462;53.156;8.220;2023-04-24T10:07:59;5.73;;;4.17;;
7657;SDS011;8462;53.156;8.220;2023-04-24T10:10:29;6.87;;;4.50;;
7657;SDS011;8462;53.156;8.220;2023-04-24T10:12:56;5.27;;;4.17;;
7657;SDS011;8462;53.156;8.220;2023-04-24T10:15:26;3.73;;;3.30;;
7657;SDS011;8462;53.156;8.220;2023-04-24T10:17:54;5.37;;;3.93;;
7657;SDS011;8462;53.156;8.220;2023-04-24T10:20:25;3.27;;;2.90;;
7657;SDS011;8462;53.156;8.220;2023-04-24T10:22:54;5.53;;;2.63;;
7657;SDS011;8462;53.156;8.220;2023-04-24T10:25:22;4.60;;;3.20;;
7657;SDS011;8462;53.156;8.220;2023-04-24T10:27:51;5.30;;;2.87;;
7657;SDS011;8462;53.156;8.220;2023-04-24T10:30:22;3.13;;;2.67;;
7657;SDS011;8462;53.156;8.220;2023-04-24T10:32:51;4.20;;;2.50;;
7657;SDS011;8462;53.156;8.220;2023-04-24T10:35:18;3.20;;;2.20;;
7657;SDS011;8462;53.156;8.220;2023-04-24T10:37:49;2.90;;;2.30;;
7657;SDS011;8462;53.156;8.220;2023-04-24T10:40:25;2.93;;;2.47;;
7657;SDS011;8462;53.156;8.220;2023-04-24T10:42:53;3.57;;;2.90;;
7657;SDS011;8462;53.156;8.220;2023-04-24T10:45:20;3.03;;;2.43;;
7657;SDS011;8462;53.156;8.220;2023-04-24T10:47:54;3.33;;;2.60;;
7657;SDS011;8462;53.156;8.220;2023-04-24T10:50:23;4.77;;;2.50;;
7657;SDS011;8462;53.156;8.220;2023-04-24T10:52:52;4.60;;;2.40;;
7657;SDS011;8462;53.156;8.220;2023-04-24T10:58:15;3.13;;;2.40;;
7657;SDS011;8462;53.156;8.220;2023-04-24T11:00:43;4.37;;;2.10;;
7657;SDS011;8462;53.156;8.220;2023-04-24T11:03:26;3.47;;;2.13;;
7657;SDS011;8462;53.156;8.220;2023-04-24T11:05:55;5.63;;;2.97;;
7657;SDS011;8462;53.156;8.220;2023-04-24T11:08:29;3.90;;;2.37;;
7657;SDS011;8462;53.156;8.220;2023-04-24T11:10:58;2.67;;;2.23;;
7657;SDS011;8462;53.156;8.220;2023-04-24T11:13:31;2.50;;;2.30;;
7657;SDS011;8462;53.156;8.220;2023-04-24T11:16:30;3.97;;;2.70;;
7657;SDS011;8462;53.156;8.220;2023-04-24T11:19:02;2.47;;;2.10;;
7657;SDS011;8462;53.156;8.220;2023-04-24T11:21:31;4.80;;;2.73;;
7657;SDS011;8462;53.156;8.220;2023-04-24T11:26:50;3.50;;;2.60;;
7657;SDS011;8462;53.156;8.220;2023-04-24T11:29:20;3.77;;;2.70;;
7657;SDS011;8462;53.156;8.220;2023-04-24T11:31:48;6.07;;;2.67;;
7657;SDS011;8462;53.156;8.220;2023-04-24T11:34:17;3.23;;;2.50;;
7657;SDS011;8462;53.156;8.220;2023-04-24T11:36:44;5.77;;;3.70;;
7657;SDS011;8462;53.156;8.220;2023-04-24T11:39:13;3.87;;;2.50;;
7657;SDS011;8462;53.156;8.220;2023-04-24T11:41:40;3.63;;;2.37;;
7657;SDS011;8462;53.156;8.220;2023-04-24T11:44:08;4.17;;;2.70;;
7657;SDS011;8462;53.156;8.220;2023-04-24T11:46:37;3.33;;;2.60;;
7657;SDS011;8462;53.156;8.220;2023-04-24T11:49:05;4.40;;;1.80;;
7657;SDS011;8462;53.156;8.220;2023-04-24T11:51:32;2.20;;;1.80;;
7657;SDS011;8462;53.156;8.220;2023-04-24T11:54:01;5.00;;;1.90;;
7657;SDS011;8462;53.156;8.220;2023-04-24T11:56:29;3.30;;;2.13;;
7657;SDS011;8462;53.156;8.220;2023-04-24T11:58:56;3.50;;;1.80;;
7657;SDS011;8462;53.156;8.220;2023-04-24T12:01:23;3.67;;;2.80;;
7657;SDS011;8462;53.156;8.220;2023-04-24T12:03:58;4.37;;;3.13;;
7657;SDS011;8462;53.156;8.220;2023-04-24T12:06:26;6.37;;;3.50;;
7657;SDS011;8462;53.156;8.220;2023-04-24T12:08:53;7.43;;;4.13;;
7657;SDS011;8462;53.156;8.220;2023-04-24T12:11:22;9.73;;;6.07;;
7657;SDS011;8462;53.156;8.220;2023-04-24T12:13:51;11.40;;;5.33;;
7657;SDS011;8462;53.156;8.220;2023-04-24T12:16:19;10.53;;;5.90;;
7657;SDS011;8462;53.156;8.220;2023-04-24T12:18:46;11.23;;;6.33;;
7657;SDS011;8462;53.156;8.220;2023-04-24T12:21:18;12.63;;;6.97;;
7657;SDS011;8462;53.156;8.220;2023-04-24T12:23:46;11.67;;;7.47;;
7657;SDS011;8462;53.156;8.220;2023-04-24T12:26:17;9.50;;;6.83;;
7657;SDS011;8462;53.156;8.220;2023-04-24T12:28:46;13.00;;;6.70;;
7657;SDS011;8462;53.156;8.220;2023-04-24T12:31:15;9.07;;;6.60;;
7657;SDS011;8462;53.156;8.220;2023-04-24T12:33:42;10.27;;;6.33;;
7657;SDS011;8462;53.156;8.220;2023-04-24T12:36:10;8.80;;;6.40;;
7657;SDS011;8462;53.156;8.220;2023-04-24T12:38:41;9.10;;;6.27;;
7657;SDS011;8462;53.156;8.220;2023-04-24T12:41:12;10.13;;;6.47;;
7657;SDS011;8462;53.156;8.220;2023-04-24T12:43:50;12.20;;;6.70;;
7657;SDS011;8462;53.156;8.220;2023-04-24T12:46:19;10.37;;;6.50;;
7657;SDS011;8462;53.156;8.220;2023-04-24T12:48:46;8.40;;;6.73;;
7657;SDS011;8462;53.156;8.220;2023-04-24T12:51:13;8.33;;;6.03;;
7657;SDS011;8462;53.156;8.220;2023-04-24T12:53:41;11.27;;;5.23;;
7657;SDS011;8462;53.156;8.220;2023-04-24T12:56:08;12.20;;;4.93;;
7657;SDS011;8462;53.156;8.220;2023-04-24T12:58:36;9.23;;;4.90;;
7657;SDS011;8462;53.156;8.220;2023-04-24T13:01:03;10.03;;;5.27;;
7657;SDS011;8462;53.156;8.220;2023-04-24T13:03:31;9.20;;;4.73;;
7657;SDS011;8462;53.156;8.220;2023-04-24T13:05:58;8.67;;;5.10;;
7657;SDS011;8462;53.156;8.220;2023-04-24T13:08:25;10.93;;;5.40;;
7657;SDS011;8462;53.156;8.220;2023-04-24T13:10:54;10.77;;;4.93;;
7657;SDS011;8462;53.156;8.220;2023-04-24T13:13:22;10.13;;;6.00;;
7657;SDS011;8462;53.156;8.220;2023-04-24T13:15:49;10.33;;;4.90;;
7657;SDS011;8462;53.156;8.220;2023-04-24T13:18:17;7.47;;;4.73;;
7657;SDS011;8462;53.156;8.220;2023-04-24T13:20:45;7.43;;;4.80;;
7657;SDS011;8462;53.156;8.220;2023-04-24T13:23:13;6.33;;;4.57;;
7657;SDS011;8462;53.156;8.220;2023-04-24T13:25:41;5.27;;;4.20;;
7657;SDS011;8462;53.156;8.220;2023-04-24T13:28:10;8.30;;;3.83;;
7657;SDS011;8462;53.156;8.220;2023-04-24T13:30:37;5.53;;;4.10;;
7657;SDS011;8462;53.156;8.220;2023-04-24T13:33:04;8.83;;;3.37;;
7657;SDS011;8462;53.156;8.220;2023-04-24T13:35:31;6.97;;;3.57;;
7657;SDS011;8462;53.156;8.220;2023-04-24T13:37:58;7.03;;;4.00;;
7657;SDS011;8462;53.156;8.220;2023-04-24T13:40:26;5.00;;;3.30;;
7657;SDS011;8462;53.156;8.220;2023-04-24T13:42:54;7.10;;;3.43;;
7657;SDS011;8462;53.156;8.220;2023-04-24T13:45:23;7.53;;;3.40;;
7657;SDS011;8462;53.156;8.220;2023-04-24T13:47:50;6.73;;;3.70;;
7657;SDS011;8462;53.156;8.220;2023-04-24T13:50:18;8.90;;;3.97;;
7657;SDS011;8462;53.156;8.220;2023-04-24T13:52:45;7.53;;;3.47;;
7657;SDS011;8462;53.156;8.220;2023-04-24T13:55:13;11.57;;;4.13;;
7657;SDS011;8462;53.156;8.220;2023-04-24T13:57:41;9.33;;;3.83;;
7657;SDS011;8462;53.156;8.220;2023-04-24T14:00:09;5.90;;;3.43;;
7657;SDS011;8462;53.156;8.220;2023-04-24T14:02:38;8.27;;;3.90;;
7657;SDS011;8462;53.156;8.220;2023-04-24T14:05:06;7.70;;;3.40;;
7657;SDS011;8462;53.156;8.220;2023-04-24T14:07:34;6.13;;;3.80;;
7657;SDS011;8462;53.156;8.220;2023-04-24T14:10:02;9.03;;;4.00;;
7657;SDS011;8462;53.156;8.220;2023-04-24T14:12:32;9.73;;;3.80;;
7657;SDS011;8462;53.156;8.220;2023-04-24T14:14:59;8.10;;;3.73;;
7657;SDS011;8462;53.156;8.220;2023-04-24T14:17:26;9.73;;;3.50;;
7657;SDS011;8462;53.156;8.220;2023-04-24T14:19:55;7.80;;;3.43;;
7657;SDS011;8462;53.156;8.220;2023-04-24T14:22:25;7.80;;;3.30;;
7657;SDS011;8462;53.156;8.220;2023-04-24T14:24:52;4.43;;;3.20;;
7657;SDS011;8462;53.156;8.220;2023-04-24T14:27:20;7.77;;;3.67;;
7657;SDS011;8462;53.156;8.220;2023-04-24T14:29:47;4.53;;;3.77;;
7657;SDS011;8462;53.156;8.220;2023-04-24T14:32:15;6.00;;;3.07;;
7657;SDS011;8462;53.156;8.220;2023-04-24T14:34:42;8.13;;;3.00;;
7657;SDS011;8462;53.156;8.220;2023-04-24T14:37:11;6.87;;;2.67;;
7657;SDS011;8462;53.156;8.220;2023-04-24T14:39:38;5.97;;;2.50;;
7657;SDS011;8462;53.156;8.220;2023-04-24T14:42:05;8.67;;;2.37;;
7657;SDS011;8462;53.156;8.220;2023-04-24T14:44:32;2.17;;;1.90;;
7657;SDS011;8462;53.156;8.220;2023-04-24T14:46:59;3.20;;;2.00;;
7657;SDS011;8462;53.156;8.220;2023-04-24T14:49:26;6.13;;;2.10;;
7657;SDS011;8462;53.156;8.220;2023-04-24T14:51:54;5.63;;;1.67;;
7657;SDS011;8462;53.156;8.220;2023-04-24T14:54:22;3.43;;;2.23;;
7657;SDS011;8462;53.156;8.220;2023-04-24T14:56:50;3.70;;;1.90;;
7657;SDS011;8462;53.156;8.220;2023-04-24T14:59:17;4.87;;;2.30;;
7657;SDS011;8462;53.156;8.220;2023-04-24T15:01:44;2.03;;;1.73;;
7657;SDS011;8462;53.156;8.220;2023-04-24T15:04:12;6.97;;;2.60;;
7657;SDS011;8462;53.156;8.220;2023-04-24T15:06:39;5.83;;;2.93;;
7657;SDS011;8462;53.156;8.220;2023-04-24T15:09:07;4.47;;;2.13;;
7657;SDS011;8462;53.156;8.220;2023-04-24T15:11:36;3.90;;;2.20;;
7657;SDS011;8462;53.156;8.220;2023-04-24T15:14:03;4.83;;;2.67;;
7657;SDS011;8462;53.156;8.220;2023-04-24T15:16:31;5.67;;;2.30;;
7657;SDS011;8462;53.156;8.220;2023-04-24T15:18:58;5.30;;;2.20;;
7657;SDS011;8462;53.156;8.220;2023-04-24T15:21:26;7.07;;;2.77;;
7657;SDS011;8462;53.156;8.220;2023-04-24T15:23:53;5.60;;;2.70;;
7657;SDS011;8462;53.156;8.220;2023-04-24T15:26:20;6.30;;;2.83;;
7657;SDS011;8462;53.156;8.220;2023-04-24T15:28:49;8.17;;;2.40;;